Time;durP1;ratioP1;P1;durP2;ratioP2;P2;SDS_P1;SDS_P2;PMS_P1;PMS_P2;Temp;Humidity;BMP_temperature;BMP_pressure;BME280_temperature;BME280_humidity;BME280_pressure;Samples;Min_cycle;Max_cycle;Signal;HPM_P1;HPM_P2
2022/03/31 00:01:16;;;;;;;24.90;20.80;;;10.80;99.90;;;;;;10420025;28;20241;-78
2022/03/31 00:06:18;;;;;;;24.47;20.03;;;10.90;99.90;;;;;;10423500;28;20702;-78
2022/03/31 00:11:20;;;;;;;25.77;21.23;;;10.80;99.90;;;;;;10417676;28;20628;-78
2022/03/31 00:16:24;;;;;;;21.40;18.97;;;10.80;99.90;;;;;;10420393;28;20280;-78
2022/03/31 00:21:26;;;;;;;22.03;19.50;;;10.80;99.90;;;;;;10423274;28;20233;-78
2022/03/31 00:26:28;;;;;;;24.63;21.57;;;10.80;99.90;;;;;;10414981;28;20674;-78
2022/03/31 00:31:32;;;;;;;25.40;21.53;;;10.80;99.90;;;;;;10407886;28;20790;-78
2022/03/31 00:36:34;;;;;;;24.20;19.57;;;10.80;99.90;;;;;;10415787;28;20202;-78
2022/03/31 00:41:37;;;;;;;24.53;21.30;;;10.70;99.90;;;;;;10405493;28;20233;-78
2022/03/31 00:46:50;;;;;;;21.17;18.80;;;10.70;99.90;;;;;;10421575;28;20685;-78
2022/03/31 00:51:53;;;;;;;20.37;18.20;;;10.70;99.90;;;;;;10412585;28;20214;-78
2022/03/31 00:56:57;;;;;;;22.07;18.00;;;10.60;99.90;;;;;;10391041;28;20227;-76
2022/03/31 01:02:02;;;;;;;19.33;17.33;;;10.60;99.90;;;;;;10404363;28;20236;-77
2022/03/31 01:07:04;;;;;;;19.37;17.40;;;10.60;99.90;;;;;;10399186;28;20569;-76
2022/03/31 01:12:07;;;;;;;20.27;17.97;;;10.50;99.90;;;;;;10427305;28;20236;-79
2022/03/31 01:17:12;;;;;;;19.80;16.73;;;10.50;99.90;;;;;;10425870;28;20202;-76
2022/03/31 01:22:14;;;;;;;17.23;15.50;;;10.60;99.90;;;;;;10424126;28;20698;-76
2022/03/31 01:27:17;;;;;;;17.40;15.63;;;10.50;99.90;;;;;;10411718;28;20233;-76
2022/03/31 01:32:20;;;;;;;18.03;16.10;;;10.50;99.90;;;;;;10411261;28;20590;-78
2022/03/31 01:37:22;;;;;;;16.83;15.23;;;10.50;99.90;;;;;;10417596;28;20198;-78
2022/03/31 01:42:26;;;;;;;17.47;15.70;;;10.50;99.90;;;;;;10419631;28;20212;-77
2022/03/31 01:47:28;;;;;;;16.23;14.60;;;10.50;99.90;;;;;;10422935;28;20203;-77
2022/03/31 01:52:31;;;;;;;17.33;15.53;;;10.50;99.90;;;;;;10414196;28;20216;-76
2022/03/31 01:57:34;;;;;;;16.07;14.30;;;10.50;99.90;;;;;;10414994;28;20205;-78
2022/03/31 02:02:37;;;;;;;15.67;14.17;;;10.50;99.90;;;;;;10408888;28;20678;-77
2022/03/31 02:07:39;;;;;;;16.20;14.60;;;10.50;99.90;;;;;;10411502;28;20280;-77
2022/03/31 02:12:43;;;;;;;15.53;13.93;;;10.40;99.90;;;;;;10410244;28;20312;-77
2022/03/31 02:17:45;;;;;;;17.20;15.50;;;10.40;99.90;;;;;;10403124;28;20194;-77
2022/03/31 02:22:47;;;;;;;15.90;14.30;;;10.40;99.90;;;;;;10419483;28;20233;-77
2022/03/31 02:27:53;;;;;;;17.10;15.40;;;10.30;99.90;;;;;;10411599;28;20197;-77
2022/03/31 02:32:55;;;;;;;16.30;14.70;;;10.30;99.90;;;;;;10419178;28;20248;-77
2022/03/31 02:37:57;;;;;;;16.27;14.67;;;10.30;99.90;;;;;;10416165;28;20209;-77
2022/03/31 02:43:01;;;;;;;16.70;15.00;;;10.20;99.90;;;;;;10416352;28;20553;-77
2022/03/31 02:48:03;;;;;;;16.43;14.80;;;10.10;99.90;;;;;;10390066;28;20209;-77
2022/03/31 02:58:26;;;;;;;19.53;17.53;;;10.10;99.90;;;;;;10422667;28;20284;-77
2022/03/31 03:03:28;;;;;;;17.93;16.03;;;10.20;99.90;;;;;;10411582;28;20228;-77
2022/03/31 03:08:31;;;;;;;19.10;17.20;;;10.20;99.90;;;;;;10426757;28;20684;-76
2022/03/31 03:13:35;;;;;;;18.00;16.30;;;10.10;99.90;;;;;;10418779;28;20623;-78
2022/03/31 03:18:38;;;;;;;17.83;16.13;;;10.20;99.90;;;;;;10417770;28;20461;-78
2022/03/31 03:23:41;;;;;;;19.17;17.37;;;10.20;99.90;;;;;;10429534;28;20694;-78
2022/03/31 03:28:44;;;;;;;17.87;16.17;;;10.10;99.90;;;;;;10415311;28;20237;-77
2022/03/31 03:33:46;;;;;;;19.83;17.93;;;10.00;99.90;;;;;;10413910;28;20220;-78
2022/03/31 03:38:48;;;;;;;19.80;17.80;;;10.10;99.90;;;;;;10422960;28;20201;-78
2022/03/31 03:43:52;;;;;;;20.73;18.83;;;10.10;99.90;;;;;;10416364;28;20221;-78
2022/03/31 03:48:54;;;;;;;17.33;15.63;;;10.10;99.90;;;;;;10425963;28;20205;-79
2022/03/31 03:53:56;;;;;;;18.97;17.07;;;10.10;99.90;;;;;;10427811;28;20298;-78
2022/03/31 03:58:59;;;;;;;18.07;16.37;;;10.00;99.90;;;;;;10419514;28;20609;-78
2022/03/31 04:04:01;;;;;;;17.63;15.93;;;10.00;99.90;;;;;;10420807;28;20701;-78
2022/03/31 04:09:04;;;;;;;18.10;16.30;;;10.00;99.90;;;;;;10420681;28;20202;-77
2022/03/31 04:14:07;;;;;;;17.27;15.67;;;10.00;99.90;;;;;;10409416;28;20234;-79
2022/03/31 04:19:10;;;;;;;18.03;16.33;;;9.90;99.90;;;;;;10413908;28;20193;-77
2022/03/31 04:24:12;;;;;;;18.90;17.00;;;9.90;99.90;;;;;;10427045;28;20222;-78
2022/03/31 04:29:16;;;;;;;18.67;16.87;;;9.90;99.90;;;;;;10428392;28;20208;-78
2022/03/31 04:34:19;;;;;;;17.80;16.00;;;9.80;99.90;;;;;;10418271;28;20228;-78
2022/03/31 04:39:21;;;;;;;19.50;17.60;;;9.80;99.90;;;;;;10425916;28;20287;-78
2022/03/31 04:44:25;;;;;;;19.23;17.43;;;9.80;99.90;;;;;;10415243;28;20209;-78
2022/03/31 04:49:27;;;;;;;18.40;16.60;;;9.70;99.90;;;;;;10403856;28;20208;-78
2022/03/31 04:54:29;;;;;;;20.30;18.20;;;9.70;99.90;;;;;;10419156;28;20240;-79
2022/03/31 04:59:32;;;;;;;18.20;16.50;;;9.70;99.90;;;;;;10410482;28;20194;-79
2022/03/31 05:04:34;;;;;;;20.73;18.73;;;9.60;99.90;;;;;;10417452;28;20204;-80
2022/03/31 05:09:37;;;;;;;19.90;17.90;;;9.60;99.90;;;;;;10422534;28;20280;-79
2022/03/31 05:14:40;;;;;;;18.90;17.00;;;9.60;99.90;;;;;;10424772;28;20205;-79
2022/03/31 05:19:42;;;;;;;19.60;17.70;;;9.70;99.90;;;;;;10412717;28;20216;-78
2022/03/31 05:24:44;;;;;;;18.60;16.80;;;9.70;99.90;;;;;;10411972;28;20198;-78
2022/03/31 05:29:48;;;;;;;18.23;16.43;;;9.70;99.90;;;;;;10409969;28;20284;-80
2022/03/31 05:34:50;;;;;;;19.43;17.57;;;9.70;99.90;;;;;;10420402;28;20197;-80
2022/03/31 05:39:52;;;;;;;18.93;17.17;;;9.70;99.90;;;;;;10412949;28;20250;-78
2022/03/31 05:44:55;;;;;;;18.00;16.30;;;9.70;99.90;;;;;;10393077;28;20682;-78
2022/03/31 05:49:58;;;;;;;18.70;16.80;;;9.70;99.90;;;;;;10411765;28;20305;-78
2022/03/31 05:55:00;;;;;;;18.50;16.70;;;9.70;99.90;;;;;;10412504;28;20201;-78
2022/03/31 06:00:06;;;;;;;18.40;16.60;;;9.70;99.90;;;;;;10410312;28;20229;-78
2022/03/31 06:05:13;;;;;;;18.57;16.77;;;9.70;99.90;;;;;;10411518;28;20201;-78
2022/03/31 06:10:15;;;;;;;17.90;16.20;;;9.60;99.90;;;;;;10422998;28;20246;-78
2022/03/31 06:15:19;;;;;;;18.40;16.67;;;9.60;99.90;;;;;;10413355;28;20572;-78
2022/03/31 06:20:21;;;;;;;20.00;18.00;;;9.60;99.90;;;;;;10415712;28;20217;-78
2022/03/31 06:25:23;;;;;;;18.73;16.90;;;9.60;99.90;;;;;;10416648;28;20198;-78
2022/03/31 06:30:27;;;;;;;19.83;17.77;;;9.60;99.90;;;;;;10412883;28;20245;-78
2022/03/31 06:35:29;;;;;;;19.93;17.93;;;9.60;99.90;;;;;;10418870;28;20197;-78
2022/03/31 06:40:36;;;;;;;21.07;18.90;;;9.70;99.90;;;;;;10414437;28;20217;-78
2022/03/31 06:45:39;;;;;;;19.40;17.40;;;9.70;99.90;;;;;;10412697;28;20624;-78
2022/03/31 06:50:42;;;;;;;20.03;18.10;;;9.80;99.90;;;;;;10419137;28;20292;-78
2022/03/31 06:55:44;;;;;;;19.23;17.37;;;9.80;99.90;;;;;;10411145;28;20205;-78
2022/03/31 07:00:47;;;;;;;19.03;17.23;;;9.90;99.90;;;;;;10423679;28;20608;-77
2022/03/31 07:05:49;;;;;;;19.20;17.30;;;9.90;99.90;;;;;;10422956;28;20204;-80
2022/03/31 07:10:52;;;;;;;18.33;16.63;;;10.00;99.90;;;;;;10411882;28;20221;-81
2022/03/31 07:15:55;;;;;;;20.93;18.80;;;10.00;99.90;;;;;;10420527;28;20204;-77
2022/03/31 07:20:58;;;;;;;19.20;17.30;;;10.10;99.90;;;;;;10432630;28;20522;-79
2022/03/31 07:26:00;;;;;;;19.13;17.33;;;10.10;99.90;;;;;;10413846;28;20253;-77
2022/03/31 07:31:03;;;;;;;20.83;18.77;;;10.30;99.90;;;;;;10408158;28;20304;-79
2022/03/31 07:36:07;;;;;;;19.70;17.60;;;10.30;99.90;;;;;;10432134;28;20204;-79
2022/03/31 07:41:09;;;;;;;20.77;18.77;;;10.40;99.90;;;;;;10397897;28;20694;-79
2022/03/31 07:46:13;;;;;;;19.37;17.47;;;10.40;99.90;;;;;;10424109;28;20285;-81
2022/03/31 07:51:16;;;;;;;19.93;17.87;;;10.40;99.90;;;;;;10416008;28;20233;-79
2022/03/31 07:56:18;;;;;;;20.30;18.10;;;10.50;99.90;;;;;;10398168;28;20213;-80
2022/03/31 08:01:21;;;;;;;20.20;18.03;;;10.60;99.90;;;;;;10416585;28;20309;-80
2022/03/31 08:06:24;;;;;;;19.83;17.83;;;10.70;99.90;;;;;;10415657;28;20293;-80
2022/03/31 08:11:26;;;;;;;20.40;18.40;;;10.80;99.90;;;;;;10414488;28;20706;-80
2022/03/31 08:16:30;;;;;;;19.60;17.60;;;10.80;99.70;;;;;;10414492;28;20281;-80
2022/03/31 08:21:32;;;;;;;21.73;19.53;;;10.80;99.90;;;;;;10414909;28;20301;-80
2022/03/31 08:26:34;;;;;;;21.20;18.50;;;10.80;99.70;;;;;;10414893;28;20244;-80
2022/03/31 08:31:38;;;;;;;21.37;19.37;;;10.80;99.30;;;;;;10415506;28;20206;-80
2022/03/31 08:36:40;;;;;;;21.90;18.80;;;10.70;99.60;;;;;;10414408;28;20601;-79
2022/03/31 08:41:44;;;;;;;22.60;20.27;;;10.70;99.70;;;;;;10415088;28;20220;-81
2022/03/31 08:46:49;;;;;;;20.77;18.77;;;10.70;99.60;;;;;;10421768;28;20208;-80
2022/03/31 08:51:51;;;;;;;22.97;20.03;;;10.80;99.90;;;;;;10403884;28;20237;-81
2022/03/31 08:56:54;;;;;;;20.60;18.57;;;10.90;99.90;;;;;;10421206;28;20190;-81
2022/03/31 09:01:58;;;;;;;20.00;18.07;;;11.00;99.20;;;;;;10424493;28;20218;-81
2022/03/31 09:07:05;;;;;;;21.43;19.40;;;11.20;99.60;;;;;;10424949;28;20286;-80
2022/03/31 09:12:08;;;;;;;21.40;19.33;;;11.40;99.90;;;;;;10426350;28;20226;-81
2022/03/31 09:17:12;;;;;;;21.10;18.97;;;11.70;99.50;;;;;;10410258;28;20264;-81
2022/03/31 09:22:15;;;;;;;25.83;19.70;;;11.80;98.20;;;;;;10422478;28;20226;-81
2022/03/31 09:27:26;;;;;;;22.53;20.30;;;11.90;98.80;;;;;;10419033;28;20685;-81
2022/03/31 09:32:29;;;;;;;20.40;18.40;;;11.90;97.40;;;;;;10414876;28;20224;-81
2022/03/31 09:37:32;;;;;;;21.70;19.50;;;11.80;98.40;;;;;;10406749;28;20206;-80
2022/03/31 09:42:34;;;;;;;21.27;19.07;;;12.00;98.80;;;;;;10422980;28;20241;-80
2022/03/31 09:47:47;;;;;;;20.20;18.30;;;12.20;98.30;;;;;;10415650;28;20623;-80
2022/03/31 09:52:49;;;;;;;20.33;18.13;;;12.60;98.30;;;;;;10406030;28;20883;-80
2022/03/31 09:57:52;;;;;;;24.83;20.30;;;12.80;97.80;;;;;;10400386;28;20252;-80
2022/03/31 10:02:56;;;;;;;23.60;21.20;;;12.90;97.20;;;;;;10414579;28;20245;-81
2022/03/31 10:07:58;;;;;;;21.03;18.90;;;13.00;97.30;;;;;;10418373;28;20201;-81
2022/03/31 10:13:17;;;;;;;22.43;20.07;;;13.30;97.30;;;;;;10421970;28;20926;-81
2022/03/31 10:18:21;;;;;;;21.87;19.77;;;13.60;95.90;;;;;;10400257;28;20198;-81
2022/03/31 10:29:00;;;;;;;20.80;18.73;;;13.60;96.40;;;;;;10336203;28;20234;-81
2022/03/31 10:34:04;;;;;;;21.57;19.37;;;13.60;95.70;;;;;;10400503;28;20221;-81
2022/03/31 10:39:08;;;;;;;20.77;18.77;;;13.70;96.00;;;;;;10417434;28;20208;-81
2022/03/31 10:44:21;;;;;;;20.57;18.33;;;13.80;95.30;;;;;;10416769;28;20720;-81
2022/03/31 10:49:24;;;;;;;22.20;19.97;;;13.80;95.50;;;;;;10431847;28;20228;-81
2022/03/31 10:54:28;;;;;;;20.53;18.50;;;13.80;95.90;;;;;;10431865;28;20200;-80
2022/03/31 10:59:30;;;;;;;21.93;19.73;;;13.90;95.60;;;;;;10420556;28;20210;-80
2022/03/31 11:04:47;;;;;;;23.37;20.23;;;13.80;94.80;;;;;;10419558;28;20312;-80
2022/03/31 11:09:59;;;;;;;23.27;20.77;;;13.80;96.10;;;;;;10419094;28;20281;-81
2022/03/31 11:15:07;;;;;;;22.47;20.07;;;13.90;95.40;;;;;;10400359;28;20564;-80
2022/03/31 11:20:19;;;;;;;21.57;19.27;;;13.90;95.90;;;;;;10423997;28;20237;-80
2022/03/31 11:25:23;;;;;;;22.43;20.20;;;13.90;95.70;;;;;;10413065;28;20613;-80
2022/03/31 11:30:30;;;;;;;22.87;20.40;;;14.00;96.00;;;;;;10426860;28;20697;-80
2022/03/31 11:35:34;;;;;;;23.37;20.83;;;14.00;95.30;;;;;;10433994;28;20313;-80
2022/03/31 11:40:38;;;;;;;21.33;19.13;;;14.00;95.80;;;;;;10430693;28;20213;-80
2022/03/31 11:45:43;;;;;;;22.97;20.70;;;13.90;95.50;;;;;;10413232;28;20217;-79
2022/03/31 11:50:52;;;;;;;22.97;20.53;;;13.90;95.70;;;;;;10416990;28;20272;-79
2022/03/31 11:55:59;;;;;;;22.87;19.70;;;13.80;95.80;;;;;;10419968;28;20196;-79
2022/03/31 12:01:01;;;;;;;23.40;20.97;;;13.70;96.10;;;;;;10418059;28;20291;-80
2022/03/31 12:06:06;;;;;;;21.93;19.77;;;13.70;96.20;;;;;;10403621;28;20206;-80
2022/03/31 12:11:09;;;;;;;23.30;20.80;;;13.70;95.90;;;;;;10418253;28;20705;-80
2022/03/31 12:16:11;;;;;;;20.20;18.07;;;13.70;96.30;;;;;;10421545;28;20190;-79
2022/03/31 12:21:15;;;;;;;21.53;18.17;;;13.60;96.30;;;;;;10420481;28;20236;-79
2022/03/31 12:26:20;;;;;;;22.30;20.00;;;13.60;96.50;;;;;;10402372;28;20737;-79
2022/03/31 12:31:26;;;;;;;21.17;18.97;;;13.70;95.80;;;;;;10419934;28;20698;-79
2022/03/31 12:36:33;;;;;;;31.63;19.37;;;13.60;96.30;;;;;;10411931;28;20281;-79
2022/03/31 12:41:37;;;;;;;22.97;20.53;;;13.60;96.30;;;;;;10413545;28;20217;-80
2022/03/31 12:46:42;;;;;;;23.27;20.43;;;13.60;96.60;;;;;;10403533;28;20204;-79
2022/03/31 12:51:48;;;;;;;24.07;21.00;;;13.50;96.50;;;;;;10394094;28;20222;-80
2022/03/31 12:56:52;;;;;;;22.23;20.03;;;13.40;96.40;;;;;;10409202;28;20285;-80
2022/03/31 13:02:00;;;;;;;23.37;20.87;;;13.40;96.90;;;;;;10416329;28;20210;-79
2022/03/31 13:07:09;;;;;;;22.90;20.60;;;13.40;97.00;;;;;;10416369;28;20197;-80
2022/03/31 13:12:12;;;;;;;21.13;18.90;;;13.40;96.80;;;;;;10411312;28;20229;-80
2022/03/31 13:17:16;;;;;;;22.47;19.97;;;13.40;96.60;;;;;;10414891;28;20198;-80
2022/03/31 13:22:23;;;;;;;23.23;18.90;;;13.40;96.60;;;;;;10413604;28;20218;-77
2022/03/31 13:27:26;;;;;;;21.03;18.73;;;13.30;96.60;;;;;;10412752;28;20614;-80
2022/03/31 13:32:28;;;;;;;22.73;20.00;;;13.30;96.90;;;;;;10412405;28;20295;-81
2022/03/31 13:37:34;;;;;;;20.53;18.33;;;13.30;96.50;;;;;;10393250;28;20248;-80
2022/03/31 13:42:38;;;;;;;20.30;18.10;;;13.30;97.20;;;;;;10410486;28;20210;-81
2022/03/31 13:47:42;;;;;;;22.83;18.53;;;13.20;97.10;;;;;;10411376;28;20915;-81
2022/03/31 13:53:43;;;;;;;20.87;18.43;;;13.20;96.90;;;;;;10413424;28;20308;-81
2022/03/31 14:03:28;;;;;;;20.27;18.00;;;13.20;97.50;;;;;;10429671;28;20249;-81
2022/03/31 14:08:31;;;;;;;22.20;19.77;;;13.20;98.00;;;;;;10388407;28;20209;-80
2022/03/31 14:13:34;;;;;;;20.67;18.57;;;13.10;98.50;;;;;;10410671;28;20312;-81
2022/03/31 14:18:41;;;;;;;22.23;19.87;;;13.00;98.60;;;;;;10411750;28;20208;-80
2022/03/31 14:23:45;;;;;;;22.20;19.83;;;12.90;98.70;;;;;;10417983;28;20221;-81
2022/03/31 14:28:49;;;;;;;22.00;19.70;;;12.80;99.60;;;;;;10401841;28;20201;-82
2022/03/31 14:33:53;;;;;;;24.43;21.70;;;12.70;99.90;;;;;;10417661;28;20268;-79
2022/03/31 14:38:57;;;;;;;25.60;21.13;;;12.50;99.90;;;;;;10410404;28;20296;-82
2022/03/31 14:44:01;;;;;;;28.40;25.30;;;12.30;99.90;;;;;;10419990;28;20225;-81
2022/03/31 14:49:07;;;;;;;26.37;23.57;;;12.10;99.90;;;;;;10421820;28;20194;-80
2022/03/31 14:54:11;;;;;;;30.47;27.10;;;12.00;99.90;;;;;;10420862;28;20281;-80
2022/03/31 14:59:14;;;;;;;30.10;26.67;;;11.90;99.90;;;;;;10439550;28;20198;-80
2022/03/31 15:04:17;;;;;;;30.73;25.97;;;11.90;99.90;;;;;;10420140;28;20274;-79
2022/03/31 15:14:41;;;;;;;30.70;27.17;;;11.60;99.90;;;;;;10403704;23;20244;-82
2022/03/31 15:19:44;;;;;;;33.00;27.00;;;11.50;99.90;;;;;;10395288;28;20357;-82
2022/03/31 15:24:48;;;;;;;30.53;27.33;;;11.30;99.90;;;;;;10380417;28;20381;-83
2022/03/31 15:29:50;;;;;;;35.87;26.00;;;11.30;99.90;;;;;;10375492;28;20206;-84
2022/03/31 15:34:52;;;;;;;33.53;27.27;;;11.20;99.90;;;;;;10382803;28;20305;-84
2022/03/31 15:39:55;;;;;;;33.60;27.77;;;11.20;99.90;;;;;;10389946;28;20248;-84
2022/03/31 15:44:58;;;;;;;32.87;27.37;;;11.20;99.90;;;;;;10368494;28;20241;-82
2022/03/31 15:50:00;;;;;;;32.33;25.63;;;11.20;99.90;;;;;;10384388;28;20262;-79
2022/03/31 15:55:06;;;;;;;27.90;24.70;;;11.30;99.90;;;;;;10389342;28;20194;-82
2022/03/31 16:00:11;;;;;;;31.77;25.77;;;11.30;99.90;;;;;;10366491;28;21029;-82
2022/03/31 16:05:18;;;;;;;28.80;24.33;;;11.30;99.90;;;;;;10379006;28;20226;-83
2022/03/31 16:10:22;;;;;;;28.67;24.40;;;11.20;99.90;;;;;;10380208;28;20698;-83
2022/03/31 16:15:25;;;;;;;29.70;25.50;;;11.20;99.90;;;;;;10382243;28;20616;-84
2022/03/31 16:20:27;;;;;;;28.23;23.90;;;11.20;99.90;;;;;;10370778;28;20758;-85
2022/03/31 16:25:31;;;;;;;29.47;24.93;;;11.20;99.90;;;;;;10376888;28;20226;-83
2022/03/31 16:30:33;;;;;;;29.30;23.53;;;11.30;99.90;;;;;;10391626;28;20222;-85
2022/03/31 16:35:35;;;;;;;29.83;25.07;;;11.30;99.90;;;;;;10387071;28;20222;-84
2022/03/31 16:40:38;;;;;;;26.63;22.70;;;11.30;99.90;;;;;;10381781;28;20230;-84
2022/03/31 16:45:42;;;;;;;26.70;23.90;;;11.30;99.90;;;;;;10369015;28;20300;-82
2022/03/31 16:50:44;;;;;;;26.67;22.37;;;11.30;99.90;;;;;;10378689;28;20226;-84
2022/03/31 16:55:48;;;;;;;27.80;23.53;;;11.30;99.90;;;;;;10390825;28;20355;-84
2022/03/31 17:00:50;;;;;;;27.10;22.57;;;11.30;99.90;;;;;;10364932;28;20710;-85
2022/03/31 17:05:52;;;;;;;27.00;24.07;;;11.30;99.90;;;;;;10374913;28;20229;-84
2022/03/31 17:10:56;;;;;;;27.50;23.40;;;11.20;99.90;;;;;;10350208;28;20230;-86
2022/03/31 17:15:59;;;;;;;29.20;23.60;;;11.20;99.90;;;;;;10392356;28;20191;-85
2022/03/31 17:21:01;;;;;;;27.47;23.03;;;11.20;99.90;;;;;;10374423;28;20222;-84
2022/03/31 17:26:04;;;;;;;25.20;22.53;;;11.10;99.90;;;;;;10364911;28;20321;-85
2022/03/31 17:31:07;;;;;;;26.20;22.93;;;11.10;99.90;;;;;;10371988;28;20709;-86
2022/03/31 17:36:12;;;;;;;29.03;23.77;;;11.10;99.90;;;;;;10371603;28;20205;-86
2022/03/31 17:41:16;;;;;;;26.83;23.53;;;11.10;99.90;;;;;;10353074;28;20221;-84
2022/03/31 17:46:18;;;;;;;30.60;23.60;;;11.10;99.90;;;;;;10372760;28;20249;-84
2022/03/31 17:51:21;;;;;;;25.60;22.97;;;11.00;99.90;;;;;;10350647;28;20587;-83
2022/03/31 17:56:24;;;;;;;29.20;23.80;;;11.00;99.90;;;;;;10349495;28;20197;-86
2022/03/31 18:01:27;;;;;;;26.77;23.87;;;11.00;99.90;;;;;;10369988;28;20226;-84
2022/03/31 18:06:29;;;;;;;27.40;24.17;;;10.90;99.90;;;;;;10350208;28;20639;-84
2022/03/31 18:11:32;;;;;;;28.37;24.43;;;10.90;99.90;;;;;;10369482;28;20230;-81
2022/03/31 18:16:35;;;;;;;28.63;24.63;;;10.80;99.90;;;;;;10365311;28;20198;-81
2022/03/31 18:21:37;;;;;;;27.97;23.90;;;10.70;99.90;;;;;;10345584;28;20214;-81
2022/03/31 18:26:43;;;;;;;30.07;26.50;;;10.50;99.90;;;;;;10346464;28;20237;-81
2022/03/31 18:37:06;;;;;;;32.57;29.03;;;10.30;99.90;;;;;;10365151;28;20678;-81
2022/03/31 18:42:10;;;;;;;31.43;28.10;;;10.10;99.90;;;;;;10349327;28;20218;-81
2022/03/31 18:47:12;;;;;;;33.37;29.87;;;10.00;99.90;;;;;;10353697;28;20198;-80
2022/03/31 18:52:15;;;;;;;31.60;28.47;;;9.90;99.90;;;;;;10374810;28;20309;-81
2022/03/31 18:57:18;;;;;;;31.47;28.17;;;9.80;99.90;;;;;;10362166;28;20199;-81
2022/03/31 19:02:21;;;;;;;34.80;28.90;;;9.70;99.90;;;;;;10371528;28;20232;-81
2022/03/31 19:07:23;;;;;;;35.20;28.60;;;9.60;99.90;;;;;;10348474;28;20504;-81
2022/03/31 19:12:27;;;;;;;29.97;26.80;;;9.60;99.90;;;;;;10390303;28;20263;-82
2022/03/31 19:17:30;;;;;;;33.60;28.57;;;9.50;99.90;;;;;;10370853;28;20264;-81
2022/03/31 19:22:32;;;;;;;32.80;27.70;;;9.40;99.90;;;;;;10368637;28;20249;-82
2022/03/31 19:27:35;;;;;;;30.30;27.20;;;9.40;99.90;;;;;;10372802;28;20278;-82
2022/03/31 19:32:39;;;;;;;30.03;26.13;;;9.40;99.90;;;;;;10354377;28;20214;-82
2022/03/31 19:37:41;;;;;;;31.63;26.50;;;9.40;99.90;;;;;;10376255;28;20229;-81
2022/03/31 19:42:44;;;;;;;28.30;25.30;;;9.30;99.90;;;;;;10377539;28;20226;-81
2022/03/31 19:47:48;;;;;;;29.20;25.20;;;9.30;99.90;;;;;;10377017;28;20187;-82
2022/03/31 19:52:52;;;;;;;30.63;25.87;;;9.20;99.90;;;;;;10363814;28;20296;-81
2022/03/31 19:57:55;;;;;;;31.87;28.27;;;9.20;99.90;;;;;;10366674;28;20282;-82
2022/03/31 20:02:58;;;;;;;29.60;26.40;;;9.20;99.90;;;;;;10373416;28;21003;-82
2022/03/31 20:08:00;;;;;;;34.70;28.40;;;9.20;99.90;;;;;;10370052;28;20685;-82
2022/03/31 20:13:06;;;;;;;30.93;26.40;;;9.10;99.90;;;;;;10367280;28;20262;-82
2022/03/31 20:18:08;;;;;;;29.53;26.23;;;9.10;99.90;;;;;;10349616;28;20206;-82
2022/03/31 20:23:13;;;;;;;34.23;26.83;;;9.10;99.90;;;;;;10368514;28;20234;-81
2022/03/31 20:28:18;;;;;;;28.07;24.73;;;9.10;99.90;;;;;;10368515;28;20214;-83
2022/03/31 20:33:20;;;;;;;28.20;24.37;;;9.10;99.90;;;;;;10372397;28;20219;-83
2022/03/31 20:38:22;;;;;;;27.57;24.37;;;9.10;99.90;;;;;;10350534;28;20537;-84
2022/03/31 20:43:26;;;;;;;28.80;23.97;;;9.00;99.90;;;;;;10372894;28;20825;-81
2022/03/31 20:48:28;;;;;;;28.03;25.13;;;9.00;99.90;;;;;;10367938;28;20202;-83
2022/03/31 20:53:32;;;;;;;26.73;23.70;;;9.00;99.90;;;;;;10371240;28;20253;-84
2022/03/31 20:58:35;;;;;;;26.57;23.77;;;8.90;99.90;;;;;;10364448;28;20198;-83
2022/03/31 21:03:37;;;;;;;32.50;24.80;;;8.90;99.90;;;;;;10357199;28;20243;-82
2022/03/31 21:08:40;;;;;;;26.13;23.17;;;8.90;99.90;;;;;;10375662;28;20199;-83
2022/03/31 21:13:44;;;;;;;24.23;20.37;;;8.80;99.90;;;;;;10417186;23;20299;-85
2022/03/31 21:18:46;;;;;;;22.13;19.83;;;8.80;99.90;;;;;;10377893;28;20271;-87
2022/03/31 21:23:49;;;;;;;22.40;20.20;;;8.80;99.90;;;;;;10338224;28;20226;-86
2022/03/31 21:28:52;;;;;;;23.10;20.70;;;8.70;99.90;;;;;;10318313;28;20685;-86
2022/03/31 21:33:54;;;;;;;24.47;21.90;;;8.70;99.90;;;;;;10341086;28;20282;-85
2022/03/31 21:38:57;;;;;;;26.07;21.97;;;8.70;99.90;;;;;;10329260;28;20199;-84
2022/03/31 21:44:02;;;;;;;24.77;22.17;;;8.70;99.90;;;;;;10334259;28;20422;-86
2022/03/31 21:49:06;;;;;;;27.40;23.50;;;8.70;99.90;;;;;;10326733;28;20203;-85
2022/03/31 21:54:09;;;;;;;25.43;22.67;;;8.70;99.90;;;;;;10321236;28;20722;-86
2022/03/31 21:59:13;;;;;;;26.00;22.80;;;8.70;99.90;;;;;;10332397;28;20674;-85
2022/03/31 22:04:16;;;;;;;20.90;18.80;;;8.70;99.90;;;;;;10328740;28;20227;-85
2022/03/31 22:14:39;;;;;;;17.83;15.93;;;8.50;99.90;;;;;;10293066;28;20235;-85
2022/03/31 22:19:45;;;;;;;19.43;17.33;;;8.40;99.90;;;;;;10321315;28;20257;-85
2022/03/31 22:24:48;;;;;;;20.40;18.20;;;8.40;99.90;;;;;;10333291;28;20218;-86
2022/03/31 22:29:52;;;;;;;16.33;14.73;;;8.40;99.90;;;;;;10373282;28;20221;-86
2022/03/31 22:34:55;;;;;;;17.27;15.53;;;8.30;99.90;;;;;;10356828;28;20206;-85
2022/03/31 22:39:57;;;;;;;16.03;14.50;;;8.30;99.90;;;;;;10336645;28;20198;-85
2022/03/31 22:45:01;;;;;;;17.20;15.27;;;8.30;99.90;;;;;;10346420;28;20218;-86
2022/03/31 22:50:03;;;;;;;17.83;16.10;;;8.20;99.90;;;;;;10363713;28;20663;-85
2022/03/31 22:55:07;;;;;;;19.93;17.83;;;8.30;99.90;;;;;;10353236;28;20222;-85
2022/03/31 23:00:13;;;;;;;19.80;17.10;;;8.30;99.90;;;;;;10335785;28;20230;-86
2022/03/31 23:05:15;;;;;;;21.37;19.20;;;8.30;99.90;;;;;;10344498;28;20230;-85
2022/03/31 23:10:18;;;;;;;20.97;18.77;;;8.20;99.90;;;;;;10372666;28;20260;-85
2022/03/31 23:15:21;;;;;;;21.00;18.80;;;8.20;99.90;;;;;;10364405;28;20309;-85
2022/03/31 23:20:24;;;;;;;23.77;19.10;;;8.20;99.90;;;;;;10356909;28;20240;-87
2022/03/31 23:25:26;;;;;;;21.20;18.90;;;8.20;99.90;;;;;;10345214;28;20209;-85
2022/03/31 23:30:30;;;;;;;20.53;18.50;;;8.20;99.90;;;;;;10381854;28;20198;-85
2022/03/31 23:35:32;;;;;;;20.40;18.30;;;8.20;99.90;;;;;;10339254;28;20201;-85
2022/03/31 23:40:34;;;;;;;17.80;15.90;;;8.20;99.90;;;;;;10382125;28;20749;-86
2022/03/31 23:45:38;;;;;;;17.23;15.53;;;8.10;99.90;;;;;;10360527;28;20691;-86
2022/03/31 23:50:40;;;;;;;17.53;15.80;;;8.20;99.90;;;;;;10336582;28;20258;-87
2022/03/31 23:55:42;;;;;;;19.20;17.30;;;8.10;99.90;;;;;;10323657;28;20653;-86
